sensor_id;sensor_type;location;lat;lon;timestamp;pressure;altitude;pressure_sealevel;temperature;humidity
28448;BME280;15675;52.870;-1.416;2024-01-11T00:00:09;102949.69;;;5.13;100.00
28448;BME280;15675;52.870;-1.416;2024-01-11T00:02:34;102959.81;;;5.10;100.00
28448;BME280;15675;52.870;-1.416;2024-01-11T00:05:00;102962.78;;;5.16;100.00
28448;BME280;15675;52.870;-1.416;2024-01-11T00:07:26;102954.28;;;4.90;100.00
28448;BME280;15675;52.870;-1.416;2024-01-11T00:09:51;102951.03;;;4.93;100.00
28448;BME280;15675;52.870;-1.416;2024-01-11T00:12:18;102953.03;;;5.25;100.00
28448;BME280;15675;52.870;-1.416;2024-01-11T00:14:44;102953.09;;;5.40;100.00
28448;BME280;15675;52.870;-1.416;2024-01-11T00:17:12;102956.84;;;5.04;100.00
28448;BME280;15675;52.870;-1.416;2024-01-11T00:19:37;102950.09;;;5.06;100.00
28448;BME280;15675;52.870;-1.416;2024-01-11T00:22:03;102960.75;;;4.83;100.00
28448;BME280;15675;52.870;-1.416;2024-01-11T00:24:28;102957.78;;;4.77;100.00
28448;BME280;15675;52.870;-1.416;2024-01-11T00:26:54;102956.72;;;4.74;100.00
28448;BME280;15675;52.870;-1.416;2024-01-11T00:29:19;102957.41;;;4.84;100.00
28448;BME280;15675;52.870;-1.416;2024-01-11T00:31:45;102948.91;;;4.72;100.00
28448;BME280;15675;52.870;-1.416;2024-01-11T00:34:11;102958.59;;;4.76;100.00
28448;BME280;15675;52.870;-1.416;2024-01-11T00:36:36;102957.38;;;4.98;100.00
28448;BME280;15675;52.870;-1.416;2024-01-11T00:39:02;102963.16;;;4.80;100.00
28448;BME280;15675;52.870;-1.416;2024-01-11T00:41:27;102962.16;;;4.92;100.00
28448;BME280;15675;52.870;-1.416;2024-01-11T00:43:53;102958.84;;;4.94;100.00
28448;BME280;15675;52.870;-1.416;2024-01-11T00:46:19;102962.78;;;5.03;100.00
28448;BME280;15675;52.870;-1.416;2024-01-11T00:48:44;102954.59;;;4.95;100.00
28448;BME280;15675;52.870;-1.416;2024-01-11T00:51:10;102969.03;;;5.06;100.00
28448;BME280;15675;52.870;-1.416;2024-01-11T00:53:35;102966.66;;;5.09;100.00
28448;BME280;15675;52.870;-1.416;2024-01-11T00:56:01;102970.25;;;4.98;100.00
28448;BME280;15675;52.870;-1.416;2024-01-11T00:58:26;102972.84;;;5.26;100.00
28448;BME280;15675;52.870;-1.416;2024-01-11T01:00:53;102966.47;;;4.93;100.00
28448;BME280;15675;52.870;-1.416;2024-01-11T01:03:20;102977.91;;;5.11;100.00
28448;BME280;15675;52.870;-1.416;2024-01-11T01:05:45;102978.69;;;5.24;100.00
28448;BME280;15675;52.870;-1.416;2024-01-11T01:08:12;102977.19;;;4.99;100.00
28448;BME280;15675;52.870;-1.416;2024-01-11T01:10:37;102975.00;;;4.92;100.00
28448;BME280;15675;52.870;-1.416;2024-01-11T01:13:03;102975.47;;;4.99;100.00
28448;BME280;15675;52.870;-1.416;2024-01-11T01:15:29;102973.78;;;5.00;100.00
28448;BME280;15675;52.870;-1.416;2024-01-11T01:17:54;102977.38;;;5.02;100.00
28448;BME280;15675;52.870;-1.416;2024-01-11T01:20:22;102976.91;;;4.81;100.00
28448;BME280;15675;52.870;-1.416;2024-01-11T01:22:48;102980.16;;;4.92;100.00
28448;BME280;15675;52.870;-1.416;2024-01-11T01:25:14;102970.97;;;4.82;100.00
28448;BME280;15675;52.870;-1.416;2024-01-11T01:27:40;102979.94;;;5.02;100.00
28448;BME280;15675;52.870;-1.416;2024-01-11T01:30:05;102982.56;;;5.17;100.00
28448;BME280;15675;52.870;-1.416;2024-01-11T01:32:32;102982.56;;;5.17;100.00
28448;BME280;15675;52.870;-1.416;2024-01-11T01:34:58;102986.56;;;5.12;100.00
28448;BME280;15675;52.870;-1.416;2024-01-11T01:37:24;102969.75;;;4.90;99.68
28448;BME280;15675;52.870;-1.416;2024-01-11T01:39:49;102979.16;;;4.90;99.96
28448;BME280;15675;52.870;-1.416;2024-01-11T01:42:15;102980.56;;;4.84;98.73
28448;BME280;15675;52.870;-1.416;2024-01-11T01:44:41;102983.38;;;5.16;99.13
28448;BME280;15675;52.870;-1.416;2024-01-11T01:47:08;102972.13;;;5.00;97.96
28448;BME280;15675;52.870;-1.416;2024-01-11T01:49:35;102981.59;;;5.15;97.78
28448;BME280;15675;52.870;-1.416;2024-01-11T01:52:01;102980.06;;;5.32;97.29
28448;BME280;15675;52.870;-1.416;2024-01-11T01:54:29;102985.31;;;5.20;96.49
28448;BME280;15675;52.870;-1.416;2024-01-11T01:56:56;102987.34;;;5.39;96.67
28448;BME280;15675;52.870;-1.416;2024-01-11T01:59:24;102996.28;;;5.31;96.07
28448;BME280;15675;52.870;-1.416;2024-01-11T02:01:51;102975.50;;;4.86;96.34
28448;BME280;15675;52.870;-1.416;2024-01-11T02:04:17;102988.56;;;4.89;97.93
28448;BME280;15675;52.870;-1.416;2024-01-11T02:06:44;102996.47;;;4.92;98.00
28448;BME280;15675;52.870;-1.416;2024-01-11T02:09:12;102999.69;;;4.75;98.35
28448;BME280;15675;52.870;-1.416;2024-01-11T02:11:39;102997.59;;;4.82;97.94
28448;BME280;15675;52.870;-1.416;2024-01-11T02:14:07;102988.06;;;4.81;97.66
28448;BME280;15675;52.870;-1.416;2024-01-11T02:16:32;102990.31;;;4.90;97.45
28448;BME280;15675;52.870;-1.416;2024-01-11T02:18:58;103007.66;;;4.93;97.40
28448;BME280;15675;52.870;-1.416;2024-01-11T02:21:24;103013.19;;;5.12;97.33
28448;BME280;15675;52.870;-1.416;2024-01-11T02:24:06;103002.59;;;4.94;96.41
28448;BME280;15675;52.870;-1.416;2024-01-11T02:26:32;103009.50;;;5.09;96.74
28448;BME280;15675;52.870;-1.416;2024-01-11T02:28:58;103014.78;;;5.10;96.33
28448;BME280;15675;52.870;-1.416;2024-01-11T02:31:24;103015.28;;;5.33;96.40
28448;BME280;15675;52.870;-1.416;2024-01-11T02:33:51;103017.31;;;5.24;96.51
28448;BME280;15675;52.870;-1.416;2024-01-11T02:36:18;103016.94;;;5.17;96.49
28448;BME280;15675;52.870;-1.416;2024-01-11T02:38:44;103017.41;;;5.25;95.73
28448;BME280;15675;52.870;-1.416;2024-01-11T02:41:10;103023.94;;;5.33;96.12
28448;BME280;15675;52.870;-1.416;2024-01-11T02:43:36;103027.63;;;5.52;95.91
28448;BME280;15675;52.870;-1.416;2024-01-11T02:46:02;103030.97;;;5.23;95.37
28448;BME280;15675;52.870;-1.416;2024-01-11T02:48:29;103035.88;;;5.46;96.35
28448;BME280;15675;52.870;-1.416;2024-01-11T02:50:56;103029.28;;;5.51;96.19
28448;BME280;15675;52.870;-1.416;2024-01-11T02:53:22;103033.72;;;5.39;96.37
28448;BME280;15675;52.870;-1.416;2024-01-11T02:55:47;103030.81;;;5.06;96.97
28448;BME280;15675;52.870;-1.416;2024-01-11T02:58:13;103040.66;;;5.27;97.92
28448;BME280;15675;52.870;-1.416;2024-01-11T03:00:38;103042.50;;;5.43;97.37
28448;BME280;15675;52.870;-1.416;2024-01-11T03:03:04;103047.28;;;5.36;96.66
28448;BME280;15675;52.870;-1.416;2024-01-11T03:05:29;103050.13;;;5.55;97.13
28448;BME280;15675;52.870;-1.416;2024-01-11T03:07:55;103042.41;;;5.41;96.82
28448;BME280;15675;52.870;-1.416;2024-01-11T03:10:20;103051.38;;;5.19;97.38
28448;BME280;15675;52.870;-1.416;2024-01-11T03:12:46;103051.97;;;5.29;98.94
28448;BME280;15675;52.870;-1.416;2024-01-11T03:15:15;103044.75;;;5.10;99.22
28448;BME280;15675;52.870;-1.416;2024-01-11T03:17:41;103043.78;;;4.94;99.50
28448;BME280;15675;52.870;-1.416;2024-01-11T03:20:07;103047.06;;;4.78;99.62
28448;BME280;15675;52.870;-1.416;2024-01-11T03:22:33;103047.78;;;4.89;99.89
28448;BME280;15675;52.870;-1.416;2024-01-11T03:24:59;103053.59;;;5.00;99.84
28448;BME280;15675;52.870;-1.416;2024-01-11T03:27:24;103049.78;;;5.35;99.51
28448;BME280;15675;52.870;-1.416;2024-01-11T03:29:50;103052.25;;;5.20;98.34
28448;BME280;15675;52.870;-1.416;2024-01-11T03:32:15;103055.75;;;5.21;97.62
28448;BME280;15675;52.870;-1.416;2024-01-11T03:34:41;103056.13;;;5.27;97.43
28448;BME280;15675;52.870;-1.416;2024-01-11T03:37:07;103053.91;;;5.33;96.81
28448;BME280;15675;52.870;-1.416;2024-01-11T03:39:33;103057.81;;;5.26;97.26
28448;BME280;15675;52.870;-1.416;2024-01-11T03:41:59;103057.72;;;5.25;96.69
28448;BME280;15675;52.870;-1.416;2024-01-11T03:44:24;103060.97;;;5.35;97.10
28448;BME280;15675;52.870;-1.416;2024-01-11T03:46:50;103063.59;;;5.50;97.03
28448;BME280;15675;52.870;-1.416;2024-01-11T03:49:16;103051.69;;;5.52;95.86
28448;BME280;15675;52.870;-1.416;2024-01-11T03:51:42;103061.72;;;5.48;95.67
28448;BME280;15675;52.870;-1.416;2024-01-11T03:54:08;103064.13;;;5.45;95.82
28448;BME280;15675;52.870;-1.416;2024-01-11T03:56:33;103071.16;;;5.34;96.31
28448;BME280;15675;52.870;-1.416;2024-01-11T03:59:02;103068.25;;;5.56;95.96
28448;BME280;15675;52.870;-1.416;2024-01-11T04:01:27;103071.78;;;5.72;95.24
28448;BME280;15675;52.870;-1.416;2024-01-11T04:03:53;103066.97;;;5.49;95.98
28448;BME280;15675;52.870;-1.416;2024-01-11T04:06:22;103065.94;;;5.61;95.90
28448;BME280;15675;52.870;-1.416;2024-01-11T04:08:49;103068.47;;;5.46;96.99
28448;BME280;15675;52.870;-1.416;2024-01-11T04:11:14;103074.22;;;5.70;96.46
28448;BME280;15675;52.870;-1.416;2024-01-11T04:13:40;103065.19;;;5.48;95.98
28448;BME280;15675;52.870;-1.416;2024-01-11T04:16:06;103071.63;;;5.55;96.76
28448;BME280;15675;52.870;-1.416;2024-01-11T04:18:32;103073.34;;;5.69;96.92
28448;BME280;15675;52.870;-1.416;2024-01-11T04:20:58;103075.16;;;5.29;96.82
28448;BME280;15675;52.870;-1.416;2024-01-11T04:23:23;103076.31;;;5.47;97.34
28448;BME280;15675;52.870;-1.416;2024-01-11T04:25:50;103080.28;;;5.42;97.07
28448;BME280;15675;52.870;-1.416;2024-01-11T04:28:17;103083.00;;;5.04;98.37
28448;BME280;15675;52.870;-1.416;2024-01-11T04:30:43;103086.09;;;5.53;98.50
28448;BME280;15675;52.870;-1.416;2024-01-11T04:33:09;103085.56;;;5.17;98.04
28448;BME280;15675;52.870;-1.416;2024-01-11T04:35:36;103087.53;;;5.21;98.05
28448;BME280;15675;52.870;-1.416;2024-01-11T04:38:01;103102.38;;;5.67;97.32
28448;BME280;15675;52.870;-1.416;2024-01-11T04:40:27;103086.41;;;5.44;95.45
28448;BME280;15675;52.870;-1.416;2024-01-11T04:42:52;103085.94;;;5.36;96.11
28448;BME280;15675;52.870;-1.416;2024-01-11T04:45:18;103089.31;;;5.77;95.60
28448;BME280;15675;52.870;-1.416;2024-01-11T04:47:43;103093.28;;;5.87;94.99
28448;BME280;15675;52.870;-1.416;2024-01-11T04:50:09;103085.09;;;5.51;94.68
28448;BME280;15675;52.870;-1.416;2024-01-11T04:52:34;103095.44;;;5.38;95.48
28448;BME280;15675;52.870;-1.416;2024-01-11T04:55:01;103095.34;;;5.78;95.38
28448;BME280;15675;52.870;-1.416;2024-01-11T04:57:27;103084.03;;;5.47;95.43
28448;BME280;15675;52.870;-1.416;2024-01-11T04:59:52;103094.16;;;5.73;94.89
28448;BME280;15675;52.870;-1.416;2024-01-11T05:02:20;103091.78;;;5.34;94.47
28448;BME280;15675;52.870;-1.416;2024-01-11T05:04:47;103097.78;;;5.48;94.86
28448;BME280;15675;52.870;-1.416;2024-01-11T05:07:13;103101.25;;;5.48;93.65
28448;BME280;15675;52.870;-1.416;2024-01-11T05:09:38;103095.13;;;5.46;95.36
28448;BME280;15675;52.870;-1.416;2024-01-11T05:12:04;103111.41;;;5.18;94.93
28448;BME280;15675;52.870;-1.416;2024-01-11T05:14:30;103109.63;;;5.17;95.22
28448;BME280;15675;52.870;-1.416;2024-01-11T05:16:55;103109.91;;;5.09;96.12
28448;BME280;15675;52.870;-1.416;2024-01-11T05:19:22;103113.78;;;5.15;95.68
28448;BME280;15675;52.870;-1.416;2024-01-11T05:21:48;103118.84;;;4.87;96.18
28448;BME280;15675;52.870;-1.416;2024-01-11T05:24:13;103119.03;;;5.04;95.79
28448;BME280;15675;52.870;-1.416;2024-01-11T05:26:38;103126.16;;;5.34;95.66
28448;BME280;15675;52.870;-1.416;2024-01-11T05:29:04;103123.69;;;5.09;95.92
28448;BME280;15675;52.870;-1.416;2024-01-11T05:31:30;103117.44;;;5.06;96.25
28448;BME280;15675;52.870;-1.416;2024-01-11T05:33:56;103122.31;;;5.28;95.86
28448;BME280;15675;52.870;-1.416;2024-01-11T05:36:21;103123.47;;;5.33;94.76
28448;BME280;15675;52.870;-1.416;2024-01-11T05:38:47;103125.94;;;5.45;94.70
28448;BME280;15675;52.870;-1.416;2024-01-11T05:41:13;103136.50;;;5.63;93.86
28448;BME280;15675;52.870;-1.416;2024-01-11T05:43:42;103141.56;;;5.61;92.58
28448;BME280;15675;52.870;-1.416;2024-01-11T05:46:08;103151.25;;;5.65;92.11
28448;BME280;15675;52.870;-1.416;2024-01-11T05:48:34;103145.44;;;5.55;92.05
28448;BME280;15675;52.870;-1.416;2024-01-11T05:51:00;103150.97;;;5.61;92.31
28448;BME280;15675;52.870;-1.416;2024-01-11T05:53:25;103151.50;;;5.28;93.51
28448;BME280;15675;52.870;-1.416;2024-01-11T05:55:53;103155.00;;;5.29;93.81
28448;BME280;15675;52.870;-1.416;2024-01-11T05:58:19;103167.06;;;5.16;95.27
28448;BME280;15675;52.870;-1.416;2024-01-11T06:00:45;103162.88;;;5.45;94.98
28448;BME280;15675;52.870;-1.416;2024-01-11T06:03:12;103164.59;;;5.86;94.02
28448;BME280;15675;52.870;-1.416;2024-01-11T06:05:37;103163.09;;;5.62;93.52
28448;BME280;15675;52.870;-1.416;2024-01-11T06:08:03;103164.25;;;5.67;92.65
28448;BME280;15675;52.870;-1.416;2024-01-11T06:10:29;103160.09;;;5.56;93.44
28448;BME280;15675;52.870;-1.416;2024-01-11T06:12:56;103164.31;;;5.40;93.91
28448;BME280;15675;52.870;-1.416;2024-01-11T06:15:22;103169.34;;;5.52;94.28
28448;BME280;15675;52.870;-1.416;2024-01-11T06:17:47;103179.44;;;5.35;94.14
28448;BME280;15675;52.870;-1.416;2024-01-11T06:20:13;103183.44;;;5.85;94.09
28448;BME280;15675;52.870;-1.416;2024-01-11T06:22:38;103184.22;;;5.98;92.88
28448;BME280;15675;52.870;-1.416;2024-01-11T06:25:04;103189.78;;;5.91;92.23
28448;BME280;15675;52.870;-1.416;2024-01-11T06:27:29;103189.88;;;5.92;91.97
28448;BME280;15675;52.870;-1.416;2024-01-11T06:29:55;103184.06;;;5.68;92.17
28448;BME280;15675;52.870;-1.416;2024-01-11T06:32:21;103186.59;;;5.53;92.14
28448;BME280;15675;52.870;-1.416;2024-01-11T06:34:47;103190.16;;;5.28;93.82
28448;BME280;15675;52.870;-1.416;2024-01-11T06:37:13;103191.22;;;5.45;95.40
28448;BME280;15675;52.870;-1.416;2024-01-11T06:39:38;103190.00;;;5.80;93.81
28448;BME280;15675;52.870;-1.416;2024-01-11T06:42:04;103185.13;;;5.98;92.38
28448;BME280;15675;52.870;-1.416;2024-01-11T06:44:30;103206.41;;;5.41;93.56
28448;BME280;15675;52.870;-1.416;2024-01-11T06:46:56;103198.84;;;5.70;93.72
28448;BME280;15675;52.870;-1.416;2024-01-11T06:49:22;103197.97;;;5.43;94.60
28448;BME280;15675;52.870;-1.416;2024-01-11T06:51:48;103205.47;;;5.80;94.14
28448;BME280;15675;52.870;-1.416;2024-01-11T06:54:13;103199.03;;;6.15;93.09
28448;BME280;15675;52.870;-1.416;2024-01-11T06:56:39;103213.72;;;5.75;91.65
28448;BME280;15675;52.870;-1.416;2024-01-11T06:59:04;103206.28;;;5.66;92.78
28448;BME280;15675;52.870;-1.416;2024-01-11T07:01:30;103215.69;;;5.65;93.23
28448;BME280;15675;52.870;-1.416;2024-01-11T07:03:55;103220.94;;;5.67;93.81
28448;BME280;15675;52.870;-1.416;2024-01-11T07:06:21;103216.38;;;5.76;94.27
28448;BME280;15675;52.870;-1.416;2024-01-11T07:08:47;103225.84;;;6.04;92.96
28448;BME280;15675;52.870;-1.416;2024-01-11T07:11:12;103225.09;;;5.92;92.73
28448;BME280;15675;52.870;-1.416;2024-01-11T07:13:38;103217.44;;;6.07;91.63
28448;BME280;15675;52.870;-1.416;2024-01-11T07:16:05;103228.31;;;5.47;92.72
28448;BME280;15675;52.870;-1.416;2024-01-11T07:18:31;103228.16;;;5.73;92.28
28448;BME280;15675;52.870;-1.416;2024-01-11T07:20:59;103228.34;;;5.89;92.74
28448;BME280;15675;52.870;-1.416;2024-01-11T07:23:25;103222.91;;;5.98;92.17
28448;BME280;15675;52.870;-1.416;2024-01-11T07:25:50;103221.09;;;6.10;92.20
28448;BME280;15675;52.870;-1.416;2024-01-11T07:28:16;103229.84;;;5.99;92.38
28448;BME280;15675;52.870;-1.416;2024-01-11T07:30:43;103234.22;;;5.73;93.05
28448;BME280;15675;52.870;-1.416;2024-01-11T07:33:08;103235.72;;;5.69;92.96
28448;BME280;15675;52.870;-1.416;2024-01-11T07:35:34;103239.75;;;5.79;92.79
28448;BME280;15675;52.870;-1.416;2024-01-11T07:38:00;103249.56;;;6.12;92.38
28448;BME280;15675;52.870;-1.416;2024-01-11T07:40:26;103243.53;;;5.71;92.96
28448;BME280;15675;52.870;-1.416;2024-01-11T07:42:51;103248.78;;;5.73;93.22
28448;BME280;15675;52.870;-1.416;2024-01-11T07:45:17;103249.94;;;5.91;93.19
28448;BME280;15675;52.870;-1.416;2024-01-11T07:47:44;103259.69;;;5.68;92.59
28448;BME280;15675;52.870;-1.416;2024-01-11T07:50:10;103266.13;;;5.88;92.71
28448;BME280;15675;52.870;-1.416;2024-01-11T07:52:36;103273.50;;;5.69;92.34
28448;BME280;15675;52.870;-1.416;2024-01-11T07:55:04;103268.53;;;5.99;92.79
28448;BME280;15675;52.870;-1.416;2024-01-11T07:57:36;103277.94;;;5.72;92.12
28448;BME280;15675;52.870;-1.416;2024-01-11T08:00:03;103286.84;;;5.50;92.79
28448;BME280;15675;52.870;-1.416;2024-01-11T08:02:32;103285.97;;;5.49;93.10
28448;BME280;15675;52.870;-1.416;2024-01-11T08:04:58;103279.84;;;5.47;93.75
28448;BME280;15675;52.870;-1.416;2024-01-11T08:07:26;103280.22;;;5.80;93.67
28448;BME280;15675;52.870;-1.416;2024-01-11T08:09:51;103281.91;;;5.66;93.72
28448;BME280;15675;52.870;-1.416;2024-01-11T08:12:18;103286.88;;;5.63;93.03
28448;BME280;15675;52.870;-1.416;2024-01-11T08:14:44;103285.38;;;5.80;93.18
28448;BME280;15675;52.870;-1.416;2024-01-11T08:17:12;103286.22;;;6.21;91.96
28448;BME280;15675;52.870;-1.416;2024-01-11T08:19:39;103279.00;;;5.88;91.32
28448;BME280;15675;52.870;-1.416;2024-01-11T08:22:05;103286.44;;;5.57;92.08
28448;BME280;15675;52.870;-1.416;2024-01-11T08:24:31;103295.88;;;5.83;93.18
28448;BME280;15675;52.870;-1.416;2024-01-11T08:26:57;103290.22;;;5.89;92.79
28448;BME280;15675;52.870;-1.416;2024-01-11T08:29:23;103287.25;;;5.69;93.72
28448;BME280;15675;52.870;-1.416;2024-01-11T08:31:49;103285.88;;;5.75;93.40
28448;BME280;15675;52.870;-1.416;2024-01-11T08:34:14;103286.06;;;6.04;92.70
28448;BME280;15675;52.870;-1.416;2024-01-11T08:36:40;103298.44;;;5.97;92.36
28448;BME280;15675;52.870;-1.416;2024-01-11T08:39:05;103290.72;;;5.57;92.54
28448;BME280;15675;52.870;-1.416;2024-01-11T08:41:32;103291.53;;;5.69;93.53
28448;BME280;15675;52.870;-1.416;2024-01-11T08:43:58;103293.81;;;5.78;93.54
28448;BME280;15675;52.870;-1.416;2024-01-11T08:46:25;103293.78;;;5.51;94.05
28448;BME280;15675;52.870;-1.416;2024-01-11T08:48:51;103297.97;;;5.49;95.69
28448;BME280;15675;52.870;-1.416;2024-01-11T08:51:17;103306.09;;;5.55;94.92
28448;BME280;15675;52.870;-1.416;2024-01-11T08:53:43;103313.63;;;5.92;95.16
28448;BME280;15675;52.870;-1.416;2024-01-11T08:56:09;103316.06;;;6.31;93.59
28448;BME280;15675;52.870;-1.416;2024-01-11T08:58:34;103300.44;;;6.14;92.00
28448;BME280;15675;52.870;-1.416;2024-01-11T09:01:01;103309.75;;;5.85;92.82
28448;BME280;15675;52.870;-1.416;2024-01-11T09:03:28;103316.63;;;5.98;93.62
28448;BME280;15675;52.870;-1.416;2024-01-11T09:05:54;103315.22;;;5.90;93.65
28448;BME280;15675;52.870;-1.416;2024-01-11T09:08:23;103312.91;;;5.81;93.89
28448;BME280;15675;52.870;-1.416;2024-01-11T09:10:49;103303.72;;;5.85;93.79
28448;BME280;15675;52.870;-1.416;2024-01-11T09:13:14;103319.47;;;5.76;94.31
28448;BME280;15675;52.870;-1.416;2024-01-11T09:15:41;103309.47;;;5.81;95.18
28448;BME280;15675;52.870;-1.416;2024-01-11T09:18:07;103321.34;;;5.92;95.17
28448;BME280;15675;52.870;-1.416;2024-01-11T09:20:33;103322.09;;;6.03;95.48
28448;BME280;15675;52.870;-1.416;2024-01-11T09:22:59;103318.78;;;6.05;94.79
28448;BME280;15675;52.870;-1.416;2024-01-11T09:25:27;103329.09;;;6.19;94.07
28448;BME280;15675;52.870;-1.416;2024-01-11T09:27:53;103327.41;;;6.33;93.37
28448;BME280;15675;52.870;-1.416;2024-01-11T09:30:18;103328.56;;;6.38;93.06
28448;BME280;15675;52.870;-1.416;2024-01-11T09:32:44;103336.84;;;6.61;92.52
28448;BME280;15675;52.870;-1.416;2024-01-11T09:35:09;103334.69;;;6.53;91.91
28448;BME280;15675;52.870;-1.416;2024-01-11T09:37:36;103341.50;;;6.25;91.64
28448;BME280;15675;52.870;-1.416;2024-01-11T09:40:01;103344.81;;;6.50;92.45
28448;BME280;15675;52.870;-1.416;2024-01-11T09:42:28;103344.41;;;6.57;92.09
28448;BME280;15675;52.870;-1.416;2024-01-11T09:44:54;103351.28;;;6.72;91.94
28448;BME280;15675;52.870;-1.416;2024-01-11T09:47:21;103345.47;;;6.89;90.75
28448;BME280;15675;52.870;-1.416;2024-01-11T09:49:48;103356.41;;;6.57;90.86
28448;BME280;15675;52.870;-1.416;2024-01-11T09:52:16;103361.13;;;6.36;92.15
28448;BME280;15675;52.870;-1.416;2024-01-11T09:54:45;103358.19;;;6.58;92.36
28448;BME280;15675;52.870;-1.416;2024-01-11T09:57:10;103361.63;;;6.72;92.12
28448;BME280;15675;52.870;-1.416;2024-01-11T09:59:37;103347.06;;;6.87;91.68
28448;BME280;15675;52.870;-1.416;2024-01-11T10:02:03;103352.78;;;6.97;90.67
28448;BME280;15675;52.870;-1.416;2024-01-11T10:04:29;103352.41;;;6.90;90.44
28448;BME280;15675;52.870;-1.416;2024-01-11T10:06:55;103359.72;;;6.98;90.04
28448;BME280;15675;52.870;-1.416;2024-01-11T10:09:21;103353.50;;;6.94;90.04
28448;BME280;15675;52.870;-1.416;2024-01-11T10:11:48;103350.81;;;6.93;89.55
28448;BME280;15675;52.870;-1.416;2024-01-11T10:14:14;103357.81;;;7.23;88.76
28448;BME280;15675;52.870;-1.416;2024-01-11T10:16:43;103353.78;;;7.14;89.09
28448;BME280;15675;52.870;-1.416;2024-01-11T10:19:09;103356.41;;;6.85;90.35
28448;BME280;15675;52.870;-1.416;2024-01-11T10:21:39;103357.97;;;7.12;89.26
28448;BME280;15675;52.870;-1.416;2024-01-11T10:24:05;103368.84;;;6.78;90.10
28448;BME280;15675;52.870;-1.416;2024-01-11T10:26:30;103358.16;;;7.00;91.34
28448;BME280;15675;52.870;-1.416;2024-01-11T10:28:59;103362.56;;;6.87;90.55
28448;BME280;15675;52.870;-1.416;2024-01-11T10:31:28;103366.59;;;6.97;91.02
28448;BME280;15675;52.870;-1.416;2024-01-11T10:33:54;103362.16;;;7.09;91.46
28448;BME280;15675;52.870;-1.416;2024-01-11T10:36:19;103371.28;;;6.89;92.25
28448;BME280;15675;52.870;-1.416;2024-01-11T10:38:47;103367.97;;;7.20;93.47
28448;BME280;15675;52.870;-1.416;2024-01-11T10:41:12;103374.34;;;6.97;93.60
28448;BME280;15675;52.870;-1.416;2024-01-11T10:43:43;103377.19;;;7.02;94.21
28448;BME280;15675;52.870;-1.416;2024-01-11T10:46:10;103386.88;;;7.49;94.13
28448;BME280;15675;52.870;-1.416;2024-01-11T10:48:38;103388.13;;;7.41;93.64
28448;BME280;15675;52.870;-1.416;2024-01-11T10:51:12;103379.28;;;7.22;93.65
28448;BME280;15675;52.870;-1.416;2024-01-11T10:53:45;103389.03;;;10.55;100.00
28448;BME280;15675;52.870;-1.416;2024-01-11T10:56:12;103370.84;;;8.62;88.24
28448;BME280;15675;52.870;-1.416;2024-01-11T10:58:40;103378.59;;;7.55;88.46
28448;BME280;15675;52.870;-1.416;2024-01-11T11:01:07;103386.00;;;7.64;91.54
28448;BME280;15675;52.870;-1.416;2024-01-11T11:03:34;103384.38;;;7.95;92.02
28448;BME280;15675;52.870;-1.416;2024-01-11T11:06:01;103388.47;;;7.92;92.50
28448;BME280;15675;52.870;-1.416;2024-01-11T11:08:28;103384.13;;;7.46;93.38
28448;BME280;15675;52.870;-1.416;2024-01-11T11:10:58;103395.25;;;7.30;96.17
28448;BME280;15675;52.870;-1.416;2024-01-11T11:13:25;103399.91;;;7.66;97.53
28448;BME280;15675;52.870;-1.416;2024-01-11T11:15:51;103399.84;;;7.64;97.28
28448;BME280;15675;52.870;-1.416;2024-01-11T11:18:18;103405.22;;;7.24;99.59
28448;BME280;15675;52.870;-1.416;2024-01-11T11:20:44;103402.31;;;7.04;100.00
28448;BME280;15675;52.870;-1.416;2024-01-11T11:23:12;103410.41;;;7.54;100.00
28448;BME280;15675;52.870;-1.416;2024-01-11T11:25:42;103404.88;;;7.48;100.00
28448;BME280;15675;52.870;-1.416;2024-01-11T11:28:08;103408.66;;;7.09;100.00
28448;BME280;15675;52.870;-1.416;2024-01-11T11:30:44;103407.03;;;7.40;100.00
28448;BME280;15675;52.870;-1.416;2024-01-11T11:33:21;103401.38;;;7.17;100.00
28448;BME280;15675;52.870;-1.416;2024-01-11T11:35:48;103402.69;;;7.11;100.00
28448;BME280;15675;52.870;-1.416;2024-01-11T11:38:18;103385.75;;;7.01;100.00
28448;BME280;15675;52.870;-1.416;2024-01-11T11:40:51;103400.00;;;7.09;100.00
28448;BME280;15675;52.870;-1.416;2024-01-11T11:43:17;103401.28;;;7.16;100.00
28448;BME280;15675;52.870;-1.416;2024-01-11T11:45:44;103390.25;;;7.33;100.00
28448;BME280;15675;52.870;-1.416;2024-01-11T11:53:38;103395.38;;;7.03;100.00
28448;BME280;15675;52.870;-1.416;2024-01-11T11:56:05;103397.94;;;6.75;100.00
28448;BME280;15675;52.870;-1.416;2024-01-11T11:58:33;103405.88;;;7.06;100.00
28448;BME280;15675;52.870;-1.416;2024-01-11T12:00:59;103398.84;;;7.47;100.00
28448;BME280;15675;52.870;-1.416;2024-01-11T12:03:34;103395.69;;;7.23;100.00
28448;BME280;15675;52.870;-1.416;2024-01-11T12:06:04;103397.47;;;7.39;100.00
28448;BME280;15675;52.870;-1.416;2024-01-11T12:08:31;103394.56;;;7.33;100.00
28448;BME280;15675;52.870;-1.416;2024-01-11T12:10:57;103391.22;;;7.20;100.00
28448;BME280;15675;52.870;-1.416;2024-01-11T12:13:23;103388.38;;;7.16;100.00
28448;BME280;15675;52.870;-1.416;2024-01-11T12:15:49;103385.22;;;7.06;100.00
28448;BME280;15675;52.870;-1.416;2024-01-11T12:18:14;103392.13;;;6.93;100.00
28448;BME280;15675;52.870;-1.416;2024-01-11T12:20:40;103388.41;;;7.02;100.00
28448;BME280;15675;52.870;-1.416;2024-01-11T12:23:06;103388.28;;;7.14;100.00
28448;BME280;15675;52.870;-1.416;2024-01-11T12:25:31;103381.75;;;7.06;100.00
28448;BME280;15675;52.870;-1.416;2024-01-11T12:27:57;103386.31;;;7.10;100.00
28448;BME280;15675;52.870;-1.416;2024-01-11T12:30:24;103384.09;;;6.88;100.00
28448;BME280;15675;52.870;-1.416;2024-01-11T12:32:50;103383.75;;;6.97;100.00
28448;BME280;15675;52.870;-1.416;2024-01-11T12:35:16;103390.13;;;8.21;100.00
28448;BME280;15675;52.870;-1.416;2024-01-11T12:37:56;103384.66;;;10.53;100.00
28448;BME280;15675;52.870;-1.416;2024-01-11T12:40:24;103377.91;;;8.19;100.00
28448;BME280;15675;52.870;-1.416;2024-01-11T12:42:51;103372.25;;;7.94;100.00
28448;BME280;15675;52.870;-1.416;2024-01-11T12:45:17;103379.91;;;7.78;100.00
28448;BME280;15675;52.870;-1.416;2024-01-11T12:47:43;103371.38;;;7.34;100.00